Time;durP1;ratioP1;P1;durP2;ratioP2;P2;SDS_P1;SDS_P2;PMS_P1;PMS_P2;Temp;Humidity;BMP_temperature;BMP_pressure;BME280_temperature;BME280_humidity;BME280_pressure;Samples;Min_cycle;Max_cycle;Signal;HPM_P1;HPM_P2
2023/05/25 00:01:33;;;;;;;2.65;1.00;;;11.40;99.90;;;;;;4990261;28;20466;-63
2023/05/25 00:04:01;;;;;;;2.60;1.15;;;11.40;99.90;;;;;;4992704;28;20031;-63
2023/05/25 00:06:28;;;;;;;3.35;1.38;;;11.30;99.90;;;;;;4991924;28;20039;-63
2023/05/25 00:08:56;;;;;;;4.75;1.58;;;11.20;99.90;;;;;;4992293;28;20065;-63
2023/05/25 00:11:23;;;;;;;10.20;1.92;;;11.10;99.90;;;;;;4988660;28;20142;-64
2023/05/25 00:13:50;;;;;;;3.65;1.58;;;11.00;99.90;;;;;;4983325;28;20065;-63
2023/05/25 00:16:16;;;;;;;5.15;1.58;;;11.00;99.90;;;;;;4991628;28;20389;-63
2023/05/25 00:18:42;;;;;;;3.72;1.30;;;10.90;99.90;;;;;;4992008;28;20125;-63
2023/05/25 00:21:09;;;;;;;3.25;1.27;;;10.80;99.90;;;;;;4987214;28;20085;-64
2023/05/25 00:23:35;;;;;;;2.88;1.55;;;10.80;99.90;;;;;;4991366;28;20030;-63
2023/05/25 00:26:02;;;;;;;7.78;1.20;;;10.70;99.90;;;;;;4992495;28;20046;-62
2023/05/25 00:28:28;;;;;;;3.50;1.38;;;10.70;99.90;;;;;;4991663;28;20072;-62
2023/05/25 00:30:54;;;;;;;8.55;1.40;;;10.70;99.90;;;;;;4985311;28;20081;-63
2023/05/25 00:33:20;;;;;;;4.68;2.00;;;10.60;99.90;;;;;;4991158;28;20505;-63
2023/05/25 00:35:46;;;;;;;4.22;1.83;;;10.60;99.90;;;;;;4984289;28;20027;-63
2023/05/25 00:38:18;;;;;;;1.80;1.10;;;10.60;99.90;;;;;;4991363;28;20045;-63
2023/05/25 00:40:45;;;;;;;3.97;1.45;;;10.50;99.90;;;;;;4983975;28;20026;-64
2023/05/25 00:43:11;;;;;;;5.05;1.75;;;10.40;99.90;;;;;;4982087;28;20410;-64
2023/05/25 00:45:38;;;;;;;4.32;1.40;;;10.40;99.90;;;;;;4992067;28;20034;-64
2023/05/25 00:48:04;;;;;;;6.45;1.60;;;10.40;99.90;;;;;;4981810;28;20034;-63
2023/05/25 00:50:41;;;;;;;3.97;1.48;;;10.40;99.90;;;;;;4982196;28;20038;-63
2023/05/25 00:53:09;;;;;;;5.55;1.63;;;10.40;99.90;;;;;;4982172;28;20037;-63
2023/05/25 00:56:13;;;;;;;4.40;1.33;;;10.30;99.90;;;;;;4982678;28;20030;-63
2023/05/25 00:58:41;;;;;;;6.05;2.03;;;10.30;99.90;;;;;;4954570;28;20046;-63
2023/05/25 01:01:11;;;;;;;5.22;1.33;;;10.20;99.90;;;;;;4990321;28;20082;-63
2023/05/25 01:03:40;;;;;;;8.10;1.07;;;10.10;99.90;;;;;;4982141;28;20031;-64
2023/05/25 01:06:14;;;;;;;6.07;1.60;;;10.10;99.90;;;;;;4987399;28;20021;-63
2023/05/25 01:08:46;;;;;;;10.63;2.55;;;10.10;99.90;;;;;;4995529;28;20033;-63
2023/05/25 01:11:13;;;;;;;4.78;2.00;;;10.10;99.90;;;;;;4989072;28;20397;-63
2023/05/25 01:13:41;;;;;;;4.03;1.48;;;9.90;99.90;;;;;;4982049;28;20490;-63
2023/05/25 01:16:08;;;;;;;3.97;2.05;;;9.90;99.90;;;;;;4989430;28;20042;-63
2023/05/25 01:18:34;;;;;;;5.78;1.60;;;9.80;99.90;;;;;;4981925;28;20112;-64
2023/05/25 01:21:16;;;;;;;4.30;1.23;;;9.80;99.90;;;;;;4985540;28;20205;-64
2023/05/25 01:24:16;;;;;;;3.35;1.67;;;9.80;99.90;;;;;;4982914;28;20034;-64
2023/05/25 01:27:12;;;;;;;5.85;1.58;;;9.70;99.90;;;;;;4975964;28;20116;-63
2023/05/25 01:29:42;;;;;;;4.18;1.48;;;9.60;99.90;;;;;;4978594;28;20038;-63
2023/05/25 01:32:09;;;;;;;2.65;1.23;;;9.60;99.90;;;;;;4974245;28;20030;-63
2023/05/25 01:34:36;;;;;;;4.00;1.38;;;9.60;99.90;;;;;;4981488;28;20058;-62
2023/05/25 01:37:03;;;;;;;6.30;1.80;;;9.50;99.90;;;;;;4985596;28;20034;-64
2023/05/25 01:39:28;;;;;;;5.45;1.55;;;9.50;99.90;;;;;;4981618;28;20402;-63
2023/05/25 01:41:54;;;;;;;7.72;2.28;;;9.40;99.90;;;;;;4999189;28;20042;-64
2023/05/25 01:44:20;;;;;;;3.55;1.90;;;9.30;99.90;;;;;;4990889;28;20497;-64
2023/05/25 01:46:55;;;;;;;9.15;2.00;;;9.20;99.90;;;;;;4990345;28;20133;-64
2023/05/25 01:49:25;;;;;;;6.93;1.95;;;9.10;99.90;;;;;;4982117;28;20428;-63
2023/05/25 01:52:17;;;;;;;7.72;1.42;;;9.20;99.90;;;;;;4990273;28;20085;-63
2023/05/25 01:54:56;;;;;;;7.45;1.83;;;9.30;99.90;;;;;;4982772;28;20046;-63
2023/05/25 01:57:25;;;;;;;3.78;1.42;;;9.40;99.90;;;;;;4973822;28;20049;-62
2023/05/25 01:59:56;;;;;;;3.05;1.15;;;9.40;99.90;;;;;;4979345;28;20092;-64
2023/05/25 02:02:22;;;;;;;3.42;1.58;;;9.50;99.90;;;;;;4973838;28;20053;-64
2023/05/25 02:04:48;;;;;;;5.88;1.95;;;9.40;99.90;;;;;;4981439;28;20038;-63
2023/05/25 02:07:14;;;;;;;13.45;2.40;;;9.40;99.90;;;;;;4973212;28;20038;-63
2023/05/25 02:09:40;;;;;;;5.70;1.92;;;9.30;99.90;;;;;;4981488;28;20508;-64
2023/05/25 02:12:06;;;;;;;3.15;1.80;;;9.20;99.90;;;;;;4984604;28;20030;-64
2023/05/25 02:14:32;;;;;;;2.92;1.30;;;9.20;99.90;;;;;;4981388;28;20041;-64
2023/05/25 02:17:00;;;;;;;9.65;2.05;;;9.10;99.90;;;;;;4990093;28;20466;-64
2023/05/25 02:19:27;;;;;;;4.38;1.50;;;9.20;99.90;;;;;;4990407;28;20442;-64
2023/05/25 02:21:52;;;;;;;3.05;1.42;;;9.00;99.90;;;;;;4990246;28;20038;-64
2023/05/25 02:24:18;;;;;;;2.88;1.55;;;9.00;99.90;;;;;;4990699;28;20030;-64
2023/05/25 02:26:44;;;;;;;5.18;1.77;;;9.00;99.90;;;;;;4989806;28;20101;-63
2023/05/25 02:29:10;;;;;;;2.13;1.20;;;9.00;99.90;;;;;;4990483;28;20022;-63
2023/05/25 02:31:36;;;;;;;6.90;1.73;;;8.90;99.90;;;;;;4974826;28;20031;-64
2023/05/25 02:34:02;;;;;;;8.30;2.15;;;8.90;99.90;;;;;;4981528;28;20749;-64
2023/05/25 02:36:27;;;;;;;2.63;1.58;;;8.90;99.90;;;;;;4987578;28;20097;-64
2023/05/25 02:38:53;;;;;;;7.80;1.90;;;9.00;99.90;;;;;;4990213;28;20034;-64
2023/05/25 02:41:20;;;;;;;8.57;2.63;;;9.00;99.90;;;;;;4989703;28;20105;-64
2023/05/25 02:43:46;;;;;;;3.38;1.88;;;8.90;99.90;;;;;;4958613;28;20500;-64
2023/05/25 02:46:12;;;;;;;5.93;2.45;;;8.90;99.90;;;;;;4989742;28;20081;-64
2023/05/25 02:48:38;;;;;;;6.65;2.10;;;8.90;99.90;;;;;;4986073;28;20026;-63
2023/05/25 02:51:04;;;;;;;8.38;1.58;;;8.80;99.90;;;;;;4988829;28;20061;-64
2023/05/25 02:53:29;;;;;;;3.25;1.80;;;8.90;99.90;;;;;;4993468;28;20034;-64
2023/05/25 02:55:55;;;;;;;2.53;1.45;;;8.80;99.90;;;;;;4994054;28;20030;-63
2023/05/25 02:58:21;;;;;;;4.65;1.50;;;9.00;99.90;;;;;;4993112;28;20096;-64
2023/05/25 03:00:49;;;;;;;6.35;1.98;;;9.00;99.90;;;;;;4993909;28;20037;-64
2023/05/25 03:03:15;;;;;;;2.17;0.88;;;8.90;99.90;;;;;;4978020;28;20492;-64
2023/05/25 03:05:41;;;;;;;2.97;1.63;;;8.80;99.90;;;;;;4993675;28;20109;-63
2023/05/25 03:08:06;;;;;;;9.65;1.67;;;8.80;99.90;;;;;;4992754;28;20034;-64
2023/05/25 03:10:32;;;;;;;3.28;1.65;;;8.70;99.90;;;;;;4994858;28;20058;-63
2023/05/25 03:12:58;;;;;;;2.03;1.38;;;8.70;99.90;;;;;;4997111;28;20449;-63
2023/05/25 03:15:23;;;;;;;3.65;1.75;;;8.70;99.90;;;;;;4993611;28;20042;-63
2023/05/25 03:17:49;;;;;;;9.07;2.13;;;8.70;99.90;;;;;;4992667;28;20038;-63
2023/05/25 03:20:15;;;;;;;9.35;1.98;;;8.80;99.90;;;;;;4993007;28;20068;-63
2023/05/25 03:22:42;;;;;;;3.88;1.48;;;8.80;99.90;;;;;;4992401;28;20038;-63
2023/05/25 03:25:11;;;;;;;5.20;1.58;;;8.70;99.90;;;;;;4984036;28;20026;-63
2023/05/25 03:27:38;;;;;;;15.88;1.95;;;8.80;99.90;;;;;;4992312;28;20029;-63
2023/05/25 03:30:05;;;;;;;6.00;2.20;;;8.70;99.90;;;;;;4993321;28;20023;-63
2023/05/25 03:32:31;;;;;;;6.80;1.50;;;8.70;99.90;;;;;;5007317;23;20032;-64
2023/05/25 03:34:57;;;;;;;6.13;1.83;;;8.70;99.90;;;;;;4992832;28;20034;-62
2023/05/25 03:37:23;;;;;;;4.78;1.60;;;8.70;99.90;;;;;;4992861;28;20027;-62
2023/05/25 03:39:49;;;;;;;3.25;1.65;;;8.60;99.90;;;;;;4999111;28;20394;-63
2023/05/25 03:42:15;;;;;;;4.55;1.80;;;8.70;99.90;;;;;;4992810;28;20034;-63
2023/05/25 03:44:40;;;;;;;2.78;1.30;;;8.70;99.90;;;;;;5000229;28;20041;-63
2023/05/25 03:47:06;;;;;;;8.02;1.48;;;8.70;99.90;;;;;;4993384;28;20037;-63
2023/05/25 03:49:32;;;;;;;9.40;1.67;;;8.70;99.90;;;;;;4992757;28;20512;-63
2023/05/25 03:52:00;;;;;;;5.30;2.05;;;8.60;99.90;;;;;;4993485;28;20034;-63
2023/05/25 03:54:26;;;;;;;1.90;1.10;;;8.60;99.90;;;;;;4999589;28;20126;-63
2023/05/25 03:56:52;;;;;;;10.88;1.60;;;8.60;99.90;;;;;;4985748;28;20026;-63
2023/05/25 03:59:18;;;;;;;7.93;1.73;;;8.60;99.90;;;;;;4991012;28;20466;-64
2023/05/25 04:01:44;;;;;;;4.18;2.30;;;8.70;99.90;;;;;;4992989;28;20030;-63
2023/05/25 04:04:10;;;;;;;3.85;1.90;;;8.70;99.90;;;;;;4995231;28;20042;-63
2023/05/25 04:06:36;;;;;;;8.32;2.42;;;8.70;99.90;;;;;;4993027;28;20210;-64
2023/05/25 04:09:03;;;;;;;13.23;2.30;;;8.80;99.90;;;;;;5001667;28;20037;-63
2023/05/25 04:11:29;;;;;;;2.83;1.40;;;8.70;99.90;;;;;;4992539;28;20497;-63
2023/05/25 04:13:55;;;;;;;4.45;1.98;;;8.80;99.90;;;;;;4999424;28;20030;-63
2023/05/25 04:16:21;;;;;;;4.38;2.17;;;8.90;99.90;;;;;;4992494;28;20030;-63
2023/05/25 04:18:47;;;;;;;8.80;1.42;;;8.90;99.90;;;;;;4992394;28;20038;-64
2023/05/25 04:21:12;;;;;;;2.00;1.20;;;9.00;99.90;;;;;;4992631;28;20046;-63
2023/05/25 04:23:38;;;;;;;3.58;1.48;;;9.00;99.90;;;;;;4999549;28;20040;-63
2023/05/25 04:26:04;;;;;;;4.45;2.03;;;9.10;99.90;;;;;;4992229;28;20448;-63
2023/05/25 04:28:31;;;;;;;6.80;2.10;;;9.10;99.90;;;;;;4998372;28;20121;-63
2023/05/25 04:30:57;;;;;;;2.75;1.65;;;9.20;99.90;;;;;;4991692;28;20084;-63
2023/05/25 04:33:23;;;;;;;1.40;0.98;;;9.20;99.90;;;;;;4998938;28;20038;-63
2023/05/25 04:35:49;;;;;;;7.25;1.60;;;9.20;99.90;;;;;;4992070;28;20542;-63
2023/05/25 04:38:16;;;;;;;3.55;1.40;;;9.20;99.90;;;;;;4992566;28;20034;-63
2023/05/25 04:40:45;;;;;;;3.55;1.30;;;9.20;99.90;;;;;;4990992;28;20033;-63
2023/05/25 04:43:12;;;;;;;3.95;1.67;;;9.20;99.90;;;;;;4995920;28;20083;-63
2023/05/25 04:45:38;;;;;;;4.97;1.48;;;9.20;99.90;;;;;;4980306;28;20030;-64
2023/05/25 04:48:04;;;;;;;2.53;1.08;;;9.30;99.90;;;;;;4996224;28;20033;-64
2023/05/25 04:50:30;;;;;;;6.65;2.25;;;9.30;99.90;;;;;;4991543;28;20121;-64
2023/05/25 04:52:56;;;;;;;4.07;2.05;;;9.40;99.90;;;;;;4991236;28;20488;-64
2023/05/25 04:55:22;;;;;;;5.63;1.92;;;9.40;99.90;;;;;;4986470;28;20042;-64
2023/05/25 04:57:47;;;;;;;5.25;1.73;;;9.50;99.90;;;;;;4962013;28;20116;-64
2023/05/25 05:00:14;;;;;;;6.75;2.00;;;9.60;99.90;;;;;;4968776;28;20497;-64
2023/05/25 05:02:40;;;;;;;2.28;1.45;;;9.60;99.90;;;;;;4974608;28;20030;-66
2023/05/25 05:05:06;;;;;;;4.53;1.90;;;9.60;99.90;;;;;;4974296;28;20041;-64
2023/05/25 05:07:32;;;;;;;3.92;1.25;;;9.60;99.90;;;;;;4973871;28;20037;-64
2023/05/25 05:09:58;;;;;;;4.20;1.45;;;9.70;99.90;;;;;;4975868;28;20038;-65
2023/05/25 05:12:23;;;;;;;4.75;1.95;;;9.70;99.90;;;;;;4929104;28;20050;-65
2023/05/25 05:14:49;;;;;;;3.28;1.67;;;9.80;99.90;;;;;;4996000;28;20057;-64
2023/05/25 05:17:16;;;;;;;2.55;1.40;;;9.80;99.90;;;;;;5002124;28;20030;-64
2023/05/25 05:19:42;;;;;;;4.95;2.15;;;9.90;99.90;;;;;;4983751;28;20053;-64
2023/05/25 05:22:08;;;;;;;7.07;2.35;;;9.90;99.90;;;;;;4989789;28;20498;-65
2023/05/25 05:24:34;;;;;;;6.35;1.67;;;9.90;99.90;;;;;;4997711;28;20037;-66
2023/05/25 05:27:00;;;;;;;6.97;1.70;;;9.90;99.90;;;;;;4990782;28;20026;-65
2023/05/25 05:29:27;;;;;;;6.10;1.73;;;10.10;99.90;;;;;;4997586;28;20058;-65
2023/05/25 05:31:54;;;;;;;6.18;1.75;;;10.20;99.90;;;;;;4990977;28;20065;-65
2023/05/25 05:34:23;;;;;;;4.57;1.42;;;10.30;99.90;;;;;;4997529;28;20038;-64
2023/05/25 05:36:49;;;;;;;5.05;2.53;;;10.50;99.90;;;;;;4990517;28;20026;-65
2023/05/25 05:39:15;;;;;;;7.65;2.35;;;10.60;99.90;;;;;;4997294;28;20049;-65
2023/05/25 05:41:43;;;;;;;4.13;1.50;;;10.80;99.90;;;;;;4989893;28;20069;-65
2023/05/25 05:44:13;;;;;;;4.15;1.40;;;10.90;99.90;;;;;;4987938;28;20125;-65
2023/05/25 05:46:39;;;;;;;11.43;1.85;;;10.90;99.90;;;;;;4990291;28;20052;-65
2023/05/25 05:49:05;;;;;;;7.38;2.00;;;11.10;99.90;;;;;;5001175;28;20085;-64
2023/05/25 05:51:31;;;;;;;7.35;1.67;;;11.20;99.90;;;;;;4990522;28;20026;-67
2023/05/25 05:53:57;;;;;;;7.60;1.45;;;11.30;99.90;;;;;;4994304;28;20482;-66
2023/05/25 05:56:23;;;;;;;6.80;1.83;;;11.40;99.90;;;;;;4990152;28;20038;-66
2023/05/25 05:58:50;;;;;;;3.08;1.45;;;11.60;99.90;;;;;;4994244;28;20068;-66
2023/05/25 06:01:16;;;;;;;6.75;1.75;;;11.70;99.90;;;;;;4988410;28;20029;-67
2023/05/25 06:03:45;;;;;;;5.13;1.85;;;11.80;99.90;;;;;;4998430;28;20501;-67
2023/05/25 06:06:11;;;;;;;5.18;1.77;;;11.80;99.90;;;;;;4983620;28;20034;-66
2023/05/25 06:08:36;;;;;;;3.40;1.85;;;11.90;99.90;;;;;;4977255;28;20040;-69
2023/05/25 06:11:02;;;;;;;4.38;1.80;;;12.00;99.90;;;;;;4982378;28;20446;-68
2023/05/25 06:13:28;;;;;;;4.72;1.52;;;12.20;99.90;;;;;;4984970;28;20038;-68
2023/05/25 06:15:54;;;;;;;10.10;1.70;;;12.30;99.90;;;;;;4982583;28;20038;-67
2023/05/25 06:18:19;;;;;;;3.10;1.42;;;12.50;99.90;;;;;;4990561;28;20044;-67
2023/05/25 06:20:45;;;;;;;4.05;1.75;;;12.70;99.90;;;;;;4990854;28;20061;-66
2023/05/25 06:23:13;;;;;;;11.35;1.63;;;12.80;99.90;;;;;;4997891;28;20112;-67
2023/05/25 06:25:39;;;;;;;6.28;2.15;;;12.90;99.90;;;;;;4994033;28;20030;-67
2023/05/25 06:28:05;;;;;;;3.67;1.20;;;13.00;99.90;;;;;;5001990;28;20398;-66
2023/05/25 06:30:31;;;;;;;4.93;1.88;;;13.20;99.90;;;;;;4990469;28;20030;-66
2023/05/25 06:32:57;;;;;;;3.10;1.20;;;13.20;99.90;;;;;;4991535;28;20536;-66
2023/05/25 06:35:22;;;;;;;10.18;1.73;;;13.30;99.90;;;;;;4982997;28;20066;-66
2023/05/25 06:37:49;;;;;;;2.45;1.20;;;13.20;99.90;;;;;;4984846;28;20093;-66
2023/05/25 06:40:15;;;;;;;5.45;1.70;;;13.30;99.90;;;;;;4980838;28;20108;-65
2023/05/25 06:42:42;;;;;;;2.03;1.20;;;13.40;99.90;;;;;;4982375;28;20552;-66
2023/05/25 06:45:08;;;;;;;4.55;1.13;;;13.40;99.90;;;;;;4995782;28;20561;-66
2023/05/25 06:47:34;;;;;;;6.82;1.92;;;13.50;99.90;;;;;;4982707;28;20599;-66
2023/05/25 06:50:00;;;;;;;3.65;1.30;;;13.60;99.90;;;;;;4982482;28;20026;-66
2023/05/25 06:52:30;;;;;;;4.93;1.63;;;13.60;99.90;;;;;;4981883;28;20030;-66
2023/05/25 06:54:56;;;;;;;3.13;1.40;;;13.60;99.90;;;;;;4985624;28;20042;-66
2023/05/25 06:57:23;;;;;;;3.80;1.20;;;13.80;99.90;;;;;;4982497;28;20081;-66
2023/05/25 06:59:49;;;;;;;4.22;1.85;;;13.90;99.90;;;;;;4982472;28;20039;-66
2023/05/25 07:02:14;;;;;;;5.82;1.98;;;14.00;99.90;;;;;;4983837;28;20030;-66
2023/05/25 07:04:40;;;;;;;8.55;1.80;;;14.10;99.90;;;;;;5002050;28;20038;-65
2023/05/25 07:07:08;;;;;;;3.55;1.42;;;14.30;99.90;;;;;;4981917;28;20604;-65
2023/05/25 07:09:34;;;;;;;9.63;1.98;;;14.30;99.90;;;;;;4989272;28;20037;-66
2023/05/25 07:12:00;;;;;;;6.30;3.20;;;14.30;99.90;;;;;;4992949;28;20026;-66
2023/05/25 07:14:25;;;;;;;6.50;1.52;;;14.40;99.90;;;;;;4986006;28;20505;-66
2023/05/25 07:16:51;;;;;;;5.82;2.05;;;14.50;99.90;;;;;;4981421;28;20212;-66
2023/05/25 07:19:17;;;;;;;8.48;2.17;;;14.40;99.90;;;;;;4991294;28;20383;-65
2023/05/25 07:21:43;;;;;;;7.03;1.77;;;14.50;99.90;;;;;;4993431;28;20038;-66
2023/05/25 07:24:08;;;;;;;5.95;1.35;;;14.70;99.90;;;;;;5000166;28;20034;-66
2023/05/25 07:26:35;;;;;;;7.18;1.60;;;14.80;99.90;;;;;;4991790;28;20152;-66
2023/05/25 07:29:01;;;;;;;6.15;1.70;;;14.70;99.90;;;;;;4990456;28;20105;-66
2023/05/25 07:31:27;;;;;;;2.45;0.88;;;14.80;99.90;;;;;;4992233;28;20045;-66
2023/05/25 07:33:54;;;;;;;5.47;1.92;;;15.00;99.90;;;;;;4992286;28;20046;-68
2023/05/25 07:36:20;;;;;;;5.05;1.65;;;15.00;99.90;;;;;;4993064;28;20026;-67
2023/05/25 07:38:46;;;;;;;7.63;1.52;;;15.20;99.90;;;;;;4990975;28;20038;-68
2023/05/25 07:41:12;;;;;;;3.15;1.58;;;15.40;99.90;;;;;;4991741;28;20447;-67
2023/05/25 07:43:39;;;;;;;5.95;1.23;;;15.50;99.90;;;;;;4990851;28;20116;-65
2023/05/25 07:46:05;;;;;;;5.93;1.60;;;15.40;99.90;;;;;;4995522;28;20022;-66
2023/05/25 07:48:31;;;;;;;6.93;1.90;;;15.60;99.90;;;;;;5006718;28;20041;-66
2023/05/25 07:50:58;;;;;;;7.05;1.90;;;15.60;99.90;;;;;;4992603;28;20026;-67
2023/05/25 07:53:23;;;;;;;3.83;1.95;;;15.60;99.90;;;;;;4996031;28;20029;-66
2023/05/25 07:55:49;;;;;;;3.10;1.17;;;15.70;99.90;;;;;;4991255;28;20101;-67
2023/05/25 07:58:15;;;;;;;3.72;1.42;;;15.90;99.90;;;;;;4992696;28;20027;-67
2023/05/25 08:00:42;;;;;;;4.50;1.35;;;16.10;99.90;;;;;;4992473;28;20038;-67
2023/05/25 08:03:08;;;;;;;4.45;1.25;;;16.30;99.90;;;;;;4995563;28;20034;-67
2023/05/25 08:05:34;;;;;;;8.02;1.40;;;16.40;99.30;;;;;;4991311;28;20045;-66
2023/05/25 08:08:00;;;;;;;6.03;1.38;;;16.40;99.00;;;;;;4994241;28;20530;-67
2023/05/25 08:10:30;;;;;;;5.35;2.00;;;16.50;98.80;;;;;;4991881;28;20037;-67
2023/05/25 08:12:57;;;;;;;2.00;1.48;;;16.70;98.40;;;;;;4993662;28;20033;-67
2023/05/25 08:15:25;;;;;;;5.63;1.23;;;16.70;99.00;;;;;;4993812;28;20093;-67
2023/05/25 08:17:51;;;;;;;7.35;1.48;;;16.70;98.70;;;;;;5006699;28;20030;-66
2023/05/25 08:20:17;;;;;;;6.70;1.65;;;16.70;98.30;;;;;;4994621;28;20089;-67
2023/05/25 08:22:44;;;;;;;4.82;2.20;;;16.80;98.30;;;;;;4990456;28;20946;-67
2023/05/25 08:25:10;;;;;;;11.60;1.92;;;16.80;98.40;;;;;;4988677;28;20030;-67
2023/05/25 08:27:36;;;;;;;6.85;1.70;;;17.00;98.20;;;;;;4991176;28;20109;-66
2023/05/25 08:30:06;;;;;;;12.68;2.25;;;17.00;98.00;;;;;;4990389;28;20242;-67
2023/05/25 08:32:31;;;;;;;4.72;1.38;;;16.80;97.90;;;;;;4990320;28;20398;-67
2023/05/25 08:34:57;;;;;;;4.05;1.95;;;16.90;97.80;;;;;;4992107;28;20038;-66
2023/05/25 08:37:23;;;;;;;4.72;1.30;;;17.00;97.70;;;;;;4991927;28;20504;-67
2023/05/25 08:39:49;;;;;;;3.60;1.40;;;17.20;97.80;;;;;;4989848;28;20034;-66
2023/05/25 08:42:15;;;;;;;4.07;1.73;;;17.10;97.60;;;;;;4991772;28;20106;-67
2023/05/25 08:44:41;;;;;;;4.85;1.52;;;17.20;98.10;;;;;;4968961;28;20698;-67
2023/05/25 08:47:07;;;;;;;3.38;1.13;;;17.40;97.90;;;;;;5003023;28;20025;-66
2023/05/25 08:49:38;;;;;;;2.80;1.40;;;17.70;97.70;;;;;;4998601;28;20065;-66
2023/05/25 08:52:06;;;;;;;5.60;2.42;;;17.60;97.10;;;;;;4991616;28;20066;-67
2023/05/25 08:54:36;;;;;;;3.30;1.90;;;17.70;97.30;;;;;;4990052;28;20054;-67
2023/05/25 08:57:39;;;;;;;3.00;1.13;;;17.80;97.00;;;;;;4974191;28;20030;-67
2023/05/25 09:00:10;;;;;;;4.30;1.58;;;18.00;96.70;;;;;;4971086;28;20038;-67
2023/05/25 09:02:49;;;;;;;6.82;1.45;;;18.10;97.00;;;;;;4971835;28;20117;-67
2023/05/25 09:05:16;;;;;;;8.60;1.80;;;18.30;96.70;;;;;;4986119;28;20034;-67
2023/05/25 09:07:43;;;;;;;5.82;2.10;;;18.50;96.20;;;;;;4989595;28;20050;-66
2023/05/25 09:10:10;;;;;;;4.82;2.00;;;18.60;96.50;;;;;;4985936;28;20376;-66
2023/05/25 09:12:37;;;;;;;4.45;1.30;;;18.80;95.70;;;;;;4991551;28;20029;-66
2023/05/25 09:15:04;;;;;;;5.28;2.20;;;18.60;95.90;;;;;;4994747;28;20119;-66
2023/05/25 09:17:30;;;;;;;5.30;1.40;;;18.70;95.70;;;;;;5005460;28;20048;-66
2023/05/25 09:19:57;;;;;;;3.80;1.80;;;18.60;96.00;;;;;;4994676;28;20042;-66
2023/05/25 09:22:23;;;;;;;7.07;3.28;;;18.70;95.90;;;;;;4989870;28;20560;-67
2023/05/25 09:24:49;;;;;;;3.58;1.67;;;18.80;95.50;;;;;;4993431;28;20034;-67
2023/05/25 09:27:18;;;;;;;3.22;1.55;;;19.00;95.70;;;;;;4989054;28;20058;-67
2023/05/25 09:29:49;;;;;;;10.57;1.60;;;18.80;94.90;;;;;;4993865;28;20594;-67
2023/05/25 09:32:18;;;;;;;2.88;1.40;;;18.90;94.70;;;;;;4988592;28;20033;-67
2023/05/25 09:34:46;;;;;;;9.65;1.88;;;19.10;94.60;;;;;;4990823;28;20053;-66
2023/05/25 09:37:17;;;;;;;3.60;1.65;;;19.10;94.40;;;;;;5016840;23;20049;-73
2023/05/25 09:39:44;;;;;;;5.97;1.50;;;19.20;94.50;;;;;;5009332;28;20513;-73
2023/05/25 09:42:10;;;;;;;2.58;1.20;;;19.40;94.60;;;;;;5009255;28;20040;-73
2023/05/25 09:44:37;;;;;;;3.15;1.60;;;19.30;94.50;;;;;;4990640;28;20557;-73
2023/05/25 09:47:06;;;;;;;3.90;1.67;;;19.50;94.40;;;;;;4984047;28;20046;-73
2023/05/25 09:49:32;;;;;;;3.97;1.60;;;19.70;94.30;;;;;;4988172;28;20119;-73
2023/05/25 09:51:59;;;;;;;5.45;1.55;;;19.90;94.00;;;;;;4990346;28;20062;-73
2023/05/25 09:54:25;;;;;;;4.05;1.98;;;20.00;93.30;;;;;;4988064;28;20422;-73
2023/05/25 09:56:51;;;;;;;5.10;1.52;;;19.80;94.00;;;;;;4989916;28;20121;-73
2023/05/25 09:59:17;;;;;;;6.18;1.55;;;20.10;93.40;;;;;;4990286;28;20113;-73
2023/05/25 10:01:43;;;;;;;2.85;1.40;;;19.80;94.10;;;;;;4990458;28;20550;-75
2023/05/25 10:04:09;;;;;;;4.72;2.30;;;20.00;94.30;;;;;;4990121;28;20027;-73
2023/05/25 10:06:38;;;;;;;8.93;2.40;;;20.10;93.60;;;;;;4986301;28;20030;-74
2023/05/25 10:09:05;;;;;;;4.50;1.77;;;20.10;93.80;;;;;;4984971;28;20030;-73
2023/05/25 10:11:35;;;;;;;5.57;1.40;;;20.40;93.10;;;;;;4986645;28;20497;-74
2023/05/25 10:14:05;;;;;;;4.25;1.75;;;20.00;93.10;;;;;;4984886;28;20089;-70
2023/05/25 10:16:33;;;;;;;3.75;1.60;;;20.30;94.00;;;;;;4983131;28;20030;-71
2023/05/25 10:19:31;;;;;;;7.65;1.55;;;20.60;94.00;;;;;;4989942;28;20150;-69
2023/05/25 10:22:15;;;;;;;3.28;1.63;;;20.80;93.10;;;;;;4980583;28;20065;-69
2023/05/25 10:24:58;;;;;;;4.03;2.13;;;20.90;93.00;;;;;;4953916;28;20027;-71
2023/05/25 10:27:35;;;;;;;4.10;1.40;;;21.00;92.80;;;;;;4995441;28;20031;-70
2023/05/25 10:30:02;;;;;;;2.63;1.27;;;20.80;93.20;;;;;;4988938;28;20041;-69
2023/05/25 10:32:29;;;;;;;5.78;1.73;;;20.90;93.60;;;;;;4990399;28;20522;-70
2023/05/25 10:34:57;;;;;;;2.88;1.60;;;21.10;92.90;;;;;;4990272;28;20027;-70
2023/05/25 10:37:27;;;;;;;4.97;1.45;;;21.20;93.10;;;;;;4979780;28;20038;-71
2023/05/25 10:39:55;;;;;;;4.30;2.17;;;21.50;93.10;;;;;;4989987;28;20076;-73
2023/05/25 10:42:22;;;;;;;1.42;0.90;;;21.80;92.50;;;;;;4980236;28;20117;-73
2023/05/25 10:44:48;;;;;;;3.30;1.60;;;21.50;92.30;;;;;;4989996;28;20034;-71
2023/05/25 10:47:15;;;;;;;3.70;1.45;;;21.70;91.70;;;;;;4982017;28;20093;-71
2023/05/25 10:50:25;;;;;;;3.35;1.48;;;21.50;91.60;;;;;;4972391;28;20030;-71
2023/05/25 10:53:12;;;;;;;3.23;1.43;;;21.70;92.00;;;;;;4986717;28;20057;-70
2023/05/25 10:55:53;;;;;;;7.50;1.50;;;21.80;91.00;;;;;;4989693;28;20397;-71
2023/05/25 10:58:25;;;;;;;5.63;1.35;;;21.80;91.20;;;;;;4989996;28;20455;-71
2023/05/25 11:01:07;;;;;;;7.50;1.35;;;21.80;91.10;;;;;;4989408;28;20038;-73
2023/05/25 11:04:09;;;;;;;2.97;1.77;;;21.70;91.40;;;;;;4989996;28;20058;-72
2023/05/25 11:06:42;;;;;;;5.60;1.98;;;22.00;91.70;;;;;;4989783;28;20061;-73
2023/05/25 11:09:27;;;;;;;2.03;0.93;;;22.30;90.00;;;;;;4991947;28;20034;-73
2023/05/25 11:11:54;;;;;;;8.45;1.38;;;22.30;90.10;;;;;;4993460;28;20042;-73
2023/05/25 11:14:27;;;;;;;5.25;1.80;;;22.30;90.40;;;;;;4993206;28;20441;-73
2023/05/25 11:17:18;;;;;;;5.88;1.88;;;22.30;90.30;;;;;;4993195;28;20046;-73
2023/05/25 11:19:55;;;;;;;7.10;1.55;;;22.20;90.10;;;;;;4973554;28;20041;-73
2023/05/25 11:22:35;;;;;;;6.28;1.73;;;22.30;89.30;;;;;;4992279;28;20061;-72
2023/05/25 11:25:22;;;;;;;17.57;1.83;;;22.30;89.80;;;;;;4970207;28;20030;-73
2023/05/25 11:27:49;;;;;;;2.50;1.25;;;22.40;90.10;;;;;;4985688;28;20466;-73
2023/05/25 11:30:17;;;;;;;4.20;1.55;;;22.70;88.30;;;;;;4991790;28;20533;-73
2023/05/25 11:32:49;;;;;;;7.32;1.63;;;23.00;88.60;;;;;;4995115;28;20034;-72
2023/05/25 11:35:15;;;;;;;4.70;1.27;;;23.10;87.00;;;;;;4988772;28;20038;-73
2023/05/25 11:37:48;;;;;;;3.92;1.48;;;23.10;87.40;;;;;;5000010;28;20041;-73
2023/05/25 11:40:14;;;;;;;7.72;1.45;;;23.00;85.90;;;;;;4991163;28;20026;-72
2023/05/25 11:42:41;;;;;;;2.55;1.52;;;23.20;86.60;;;;;;4992403;28;20061;-73
2023/05/25 11:45:13;;;;;;;4.78;1.60;;;23.50;85.40;;;;;;4992343;28;20113;-74
2023/05/25 11:47:38;;;;;;;3.40;1.58;;;23.40;84.00;;;;;;4992825;28;20033;-72
2023/05/25 11:50:05;;;;;;;5.53;1.58;;;23.50;83.20;;;;;;4974517;28;20383;-70
2023/05/25 11:52:31;;;;;;;3.13;1.63;;;23.50;84.30;;;;;;4983290;28;20114;-69
2023/05/25 11:54:57;;;;;;;2.92;1.50;;;23.70;83.00;;;;;;4992550;28;20038;-69
2023/05/25 11:57:24;;;;;;;4.00;1.33;;;23.50;83.30;;;;;;4992724;28;20130;-69
2023/05/25 12:00:00;;;;;;;3.80;1.38;;;23.30;82.90;;;;;;4991970;28;20037;-68
2023/05/25 12:02:26;;;;;;;5.97;1.40;;;23.60;83.30;;;;;;4991047;28;20822;-68
2023/05/25 12:04:54;;;;;;;6.20;1.98;;;23.90;81.90;;;;;;4992257;28;20034;-69
2023/05/25 12:07:20;;;;;;;4.53;1.50;;;24.00;81.50;;;;;;4986990;28;20030;-68
2023/05/25 12:09:45;;;;;;;12.25;2.15;;;23.80;81.60;;;;;;4974703;28;20029;-68
2023/05/25 12:12:12;;;;;;;3.28;1.40;;;24.40;82.10;;;;;;4991563;28;20109;-69
2023/05/25 12:14:50;;;;;;;6.30;1.30;;;24.30;80.60;;;;;;4992436;28;20033;-68
2023/05/25 12:17:17;;;;;;;3.33;1.50;;;24.60;80.30;;;;;;5000465;28;20513;-68
2023/05/25 12:19:44;;;;;;;3.88;1.40;;;24.20;81.20;;;;;;4974452;28;20137;-68
2023/05/25 12:22:11;;;;;;;4.57;1.52;;;24.30;80.90;;;;;;4991579;28;20038;-68
2023/05/25 12:24:38;;;;;;;3.78;1.50;;;24.80;79.60;;;;;;4972435;28;20056;-69
2023/05/25 12:27:17;;;;;;;5.32;1.42;;;24.40;78.70;;;;;;4993848;28;20133;-68
2023/05/25 12:29:47;;;;;;;3.45;1.33;;;24.40;79.20;;;;;;4972484;28;20031;-68
2023/05/25 12:32:13;;;;;;;5.57;1.85;;;24.80;78.10;;;;;;4991545;28;20186;-68
2023/05/25 12:34:39;;;;;;;8.82;2.33;;;25.10;77.30;;;;;;4991958;28;20117;-68
2023/05/25 12:37:16;;;;;;;3.17;1.88;;;25.30;76.60;;;;;;4978814;28;20117;-68
2023/05/25 12:39:42;;;;;;;4.15;1.38;;;25.90;76.30;;;;;;4954603;28;20043;-67
2023/05/25 12:42:16;;;;;;;3.65;1.40;;;25.70;76.90;;;;;;4990370;28;20410;-68
2023/05/25 12:44:45;;;;;;;4.70;1.63;;;25.70;73.90;;;;;;4954539;28;20078;-68
2023/05/25 12:47:22;;;;;;;3.53;1.30;;;24.90;75.90;;;;;;4990668;28;20110;-68
2023/05/25 12:50:08;;;;;;;2.65;1.13;;;25.30;75.50;;;;;;4974080;28;20030;-69
2023/05/25 12:52:43;;;;;;;4.07;1.50;;;25.70;74.40;;;;;;4991102;28;20048;-68
2023/05/25 12:55:33;;;;;;;2.85;1.08;;;25.80;73.50;;;;;;4975191;28;20470;-69
2023/05/25 12:58:05;;;;;;;3.45;1.30;;;25.60;73.30;;;;;;4991153;28;20041;-68